sensor_id;sensor_type;location;lat;lon;timestamp;P1;durP1;ratioP1;P2;durP2;ratioP2
32748;SDS011;19119;52.474;13.710;2022-08-04T00:00:27;6.10;;;3.55;;
32748;SDS011;19119;52.474;13.710;2022-08-04T00:06:02;5.38;;;3.28;;
32748;SDS011;19119;52.474;13.710;2022-08-04T00:11:08;5.82;;;3.17;;
32748;SDS011;19119;52.474;13.710;2022-08-04T00:13:38;7.05;;;3.45;;
32748;SDS011;19119;52.474;13.710;2022-08-04T00:16:09;4.18;;;3.20;;
32748;SDS011;19119;52.474;13.710;2022-08-04T00:18:40;8.50;;;3.42;;
32748;SDS011;19119;52.474;13.710;2022-08-04T00:21:11;4.78;;;3.20;;
32748;SDS011;19119;52.474;13.710;2022-08-04T00:23:38;5.80;;;3.67;;
32748;SDS011;19119;52.474;13.710;2022-08-04T00:26:07;7.75;;;3.65;;
32748;SDS011;19119;52.474;13.710;2022-08-04T00:28:34;6.15;;;3.63;;
32748;SDS011;19119;52.474;13.710;2022-08-04T00:31:02;6.57;;;3.78;;
32748;SDS011;19119;52.474;13.710;2022-08-04T00:33:29;5.45;;;3.58;;
32748;SDS011;19119;52.474;13.710;2022-08-04T00:35:56;7.88;;;4.15;;
32748;SDS011;19119;52.474;13.710;2022-08-04T00:38:23;7.53;;;3.45;;
32748;SDS011;19119;52.474;13.710;2022-08-04T00:43:34;7.45;;;3.60;;
32748;SDS011;19119;52.474;13.710;2022-08-04T00:54:10;4.53;;;3.63;;
32748;SDS011;19119;52.474;13.710;2022-08-04T01:02:17;4.20;;;3.53;;
32748;SDS011;19119;52.474;13.710;2022-08-04T01:15:43;6.63;;;3.90;;
32748;SDS011;19119;52.474;13.710;2022-08-04T01:18:21;7.10;;;3.80;;
32748;SDS011;19119;52.474;13.710;2022-08-04T01:21:02;9.13;;;3.88;;
32748;SDS011;19119;52.474;13.710;2022-08-04T01:23:43;7.30;;;4.10;;
32748;SDS011;19119;52.474;13.710;2022-08-04T01:26:45;8.13;;;3.83;;
32748;SDS011;19119;52.474;13.710;2022-08-04T01:29:19;4.47;;;4.00;;
32748;SDS011;19119;52.474;13.710;2022-08-04T01:31:56;5.53;;;4.07;;
32748;SDS011;19119;52.474;13.710;2022-08-04T01:34:42;7.30;;;3.95;;
32748;SDS011;19119;52.474;13.710;2022-08-04T01:40:15;4.32;;;3.70;;
32748;SDS011;19119;52.474;13.710;2022-08-04T01:42:41;4.82;;;3.85;;
32748;SDS011;19119;52.474;13.710;2022-08-04T01:45:10;9.27;;;4.47;;
32748;SDS011;19119;52.474;13.710;2022-08-04T01:47:37;7.32;;;4.30;;
32748;SDS011;19119;52.474;13.710;2022-08-04T01:50:07;15.73;;;4.45;;
32748;SDS011;19119;52.474;13.710;2022-08-04T01:52:36;18.35;;;5.25;;
32748;SDS011;19119;52.474;13.710;2022-08-04T01:55:04;24.98;;;5.20;;
32748;SDS011;19119;52.474;13.710;2022-08-04T01:57:33;15.82;;;4.40;;
32748;SDS011;19119;52.474;13.710;2022-08-04T02:00:02;9.95;;;4.47;;
32748;SDS011;19119;52.474;13.710;2022-08-04T02:02:29;11.05;;;5.15;;
32748;SDS011;19119;52.474;13.710;2022-08-04T02:04:55;8.55;;;4.72;;
32748;SDS011;19119;52.474;13.710;2022-08-04T02:07:39;12.40;;;4.82;;
32748;SDS011;19119;52.474;13.710;2022-08-04T02:18:49;15.77;;;5.00;;
32748;SDS011;19119;52.474;13.710;2022-08-04T02:21:24;11.25;;;5.28;;
32748;SDS011;19119;52.474;13.710;2022-08-04T02:23:53;14.18;;;5.22;;
32748;SDS011;19119;52.474;13.710;2022-08-04T02:26:25;6.65;;;4.50;;
32748;SDS011;19119;52.474;13.710;2022-08-04T02:31:38;10.48;;;5.35;;
32748;SDS011;19119;52.474;13.710;2022-08-04T02:34:29;8.40;;;4.63;;
32748;SDS011;19119;52.474;13.710;2022-08-04T02:37:03;8.38;;;4.53;;
32748;SDS011;19119;52.474;13.710;2022-08-04T02:39:32;12.75;;;5.40;;
32748;SDS011;19119;52.474;13.710;2022-08-04T02:41:59;5.32;;;3.97;;
32748;SDS011;19119;52.474;13.710;2022-08-04T02:44:27;8.27;;;4.43;;
32748;SDS011;19119;52.474;13.710;2022-08-04T02:46:53;9.57;;;4.55;;
32748;SDS011;19119;52.474;13.710;2022-08-04T02:49:20;6.28;;;4.30;;
32748;SDS011;19119;52.474;13.710;2022-08-04T02:51:50;7.07;;;4.47;;
32748;SDS011;19119;52.474;13.710;2022-08-04T02:54:18;9.52;;;5.75;;
32748;SDS011;19119;52.474;13.710;2022-08-04T02:56:49;8.50;;;4.88;;
32748;SDS011;19119;52.474;13.710;2022-08-04T02:59:17;7.43;;;4.95;;
32748;SDS011;19119;52.474;13.710;2022-08-04T03:01:47;8.27;;;5.85;;
32748;SDS011;19119;52.474;13.710;2022-08-04T03:06:47;10.73;;;5.28;;
32748;SDS011;19119;52.474;13.710;2022-08-04T03:14:47;7.50;;;5.25;;
32748;SDS011;19119;52.474;13.710;2022-08-04T03:17:32;11.88;;;5.65;;
32748;SDS011;19119;52.474;13.710;2022-08-04T03:20:23;6.63;;;4.43;;
32748;SDS011;19119;52.474;13.710;2022-08-04T03:34:35;8.38;;;5.40;;
32748;SDS011;19119;52.474;13.710;2022-08-04T03:43:04;5.95;;;4.82;;
32748;SDS011;19119;52.474;13.710;2022-08-04T03:55:10;7.90;;;5.25;;
32748;SDS011;19119;52.474;13.710;2022-08-04T03:57:46;9.52;;;6.50;;
32748;SDS011;19119;52.474;13.710;2022-08-04T04:00:22;9.82;;;5.05;;
32748;SDS011;19119;52.474;13.710;2022-08-04T04:03:02;9.50;;;5.85;;
32748;SDS011;19119;52.474;13.710;2022-08-04T04:19:50;11.48;;;5.75;;
32748;SDS011;19119;52.474;13.710;2022-08-04T04:28:49;17.13;;;5.82;;
32748;SDS011;19119;52.474;13.710;2022-08-04T04:33:57;11.35;;;6.10;;
32748;SDS011;19119;52.474;13.710;2022-08-04T04:39:50;10.57;;;5.70;;
32748;SDS011;19119;52.474;13.710;2022-08-04T04:48:20;7.38;;;5.13;;
32748;SDS011;19119;52.474;13.710;2022-08-04T04:53:46;12.00;;;5.90;;
32748;SDS011;19119;52.474;13.710;2022-08-04T04:56:35;9.57;;;6.07;;
32748;SDS011;19119;52.474;13.710;2022-08-04T04:59:11;11.85;;;5.47;;
32748;SDS011;19119;52.474;13.710;2022-08-04T05:10:11;6.80;;;5.03;;
32748;SDS011;19119;52.474;13.710;2022-08-04T05:15:42;7.75;;;5.82;;
32748;SDS011;19119;52.474;13.710;2022-08-04T05:18:11;9.00;;;5.55;;
32748;SDS011;19119;52.474;13.710;2022-08-04T05:20:43;6.20;;;5.07;;
32748;SDS011;19119;52.474;13.710;2022-08-04T05:23:16;10.02;;;5.70;;
32748;SDS011;19119;52.474;13.710;2022-08-04T05:25:54;5.93;;;5.32;;
32748;SDS011;19119;52.474;13.710;2022-08-04T05:28:27;10.30;;;5.65;;
32748;SDS011;19119;52.474;13.710;2022-08-04T05:31:04;7.05;;;5.30;;
32748;SDS011;19119;52.474;13.710;2022-08-04T05:33:40;6.72;;;6.05;;
32748;SDS011;19119;52.474;13.710;2022-08-04T05:36:14;9.52;;;6.10;;
32748;SDS011;19119;52.474;13.710;2022-08-04T05:38:42;6.47;;;5.43;;
32748;SDS011;19119;52.474;13.710;2022-08-04T05:41:12;8.10;;;5.82;;
32748;SDS011;19119;52.474;13.710;2022-08-04T05:43:38;7.55;;;5.20;;
32748;SDS011;19119;52.474;13.710;2022-08-04T05:46:08;13.10;;;5.78;;
32748;SDS011;19119;52.474;13.710;2022-08-04T05:48:34;12.13;;;5.78;;
32748;SDS011;19119;52.474;13.710;2022-08-04T05:51:02;9.98;;;5.80;;
32748;SDS011;19119;52.474;13.710;2022-08-04T05:53:29;10.23;;;5.50;;
32748;SDS011;19119;52.474;13.710;2022-08-04T05:55:56;9.48;;;5.60;;
32748;SDS011;19119;52.474;13.710;2022-08-04T05:58:23;9.98;;;5.63;;
32748;SDS011;19119;52.474;13.710;2022-08-04T06:00:49;9.50;;;5.85;;
32748;SDS011;19119;52.474;13.710;2022-08-04T06:03:17;8.20;;;5.88;;
32748;SDS011;19119;52.474;13.710;2022-08-04T06:05:44;11.82;;;5.32;;
32748;SDS011;19119;52.474;13.710;2022-08-04T06:08:11;11.27;;;5.15;;
32748;SDS011;19119;52.474;13.710;2022-08-04T06:10:37;11.20;;;5.20;;
32748;SDS011;19119;52.474;13.710;2022-08-04T06:13:09;7.65;;;5.45;;
32748;SDS011;19119;52.474;13.710;2022-08-04T06:15:38;7.97;;;5.32;;
32748;SDS011;19119;52.474;13.710;2022-08-04T06:18:06;8.02;;;4.85;;
32748;SDS011;19119;52.474;13.710;2022-08-04T06:20:35;12.80;;;5.30;;
32748;SDS011;19119;52.474;13.710;2022-08-04T06:23:09;10.93;;;5.07;;
32748;SDS011;19119;52.474;13.710;2022-08-04T06:25:49;11.02;;;4.82;;
32748;SDS011;19119;52.474;13.710;2022-08-04T06:28:16;5.47;;;4.90;;
32748;SDS011;19119;52.474;13.710;2022-08-04T06:30:43;6.72;;;5.20;;
32748;SDS011;19119;52.474;13.710;2022-08-04T06:33:11;7.95;;;5.38;;
32748;SDS011;19119;52.474;13.710;2022-08-04T06:35:48;6.70;;;4.63;;
32748;SDS011;19119;52.474;13.710;2022-08-04T06:38:17;8.05;;;4.50;;
32748;SDS011;19119;52.474;13.710;2022-08-04T06:40:44;8.57;;;4.35;;
32748;SDS011;19119;52.474;13.710;2022-08-04T06:43:10;5.15;;;4.10;;
32748;SDS011;19119;52.474;13.710;2022-08-04T06:45:36;6.40;;;3.75;;
32748;SDS011;19119;52.474;13.710;2022-08-04T06:48:05;5.63;;;3.90;;
32748;SDS011;19119;52.474;13.710;2022-08-04T06:50:34;6.65;;;3.70;;
32748;SDS011;19119;52.474;13.710;2022-08-04T06:52:59;6.18;;;4.22;;
32748;SDS011;19119;52.474;13.710;2022-08-04T06:55:25;7.05;;;3.95;;
32748;SDS011;19119;52.474;13.710;2022-08-04T06:57:51;6.03;;;3.70;;
32748;SDS011;19119;52.474;13.710;2022-08-04T07:00:19;5.80;;;3.53;;
32748;SDS011;19119;52.474;13.710;2022-08-04T07:02:50;3.75;;;3.22;;
32748;SDS011;19119;52.474;13.710;2022-08-04T07:05:17;5.55;;;4.18;;
32748;SDS011;19119;52.474;13.710;2022-08-04T07:07:44;6.03;;;3.95;;
32748;SDS011;19119;52.474;13.710;2022-08-04T07:10:10;7.28;;;4.38;;
32748;SDS011;19119;52.474;13.710;2022-08-04T07:12:36;4.07;;;3.63;;
32748;SDS011;19119;52.474;13.710;2022-08-04T07:15:03;4.22;;;3.70;;
32748;SDS011;19119;52.474;13.710;2022-08-04T07:17:30;7.25;;;3.95;;
32748;SDS011;19119;52.474;13.710;2022-08-04T07:19:56;4.55;;;3.60;;
32748;SDS011;19119;52.474;13.710;2022-08-04T07:22:22;8.38;;;4.15;;
32748;SDS011;19119;52.474;13.710;2022-08-04T07:24:53;5.55;;;4.00;;
32748;SDS011;19119;52.474;13.710;2022-08-04T07:27:20;5.63;;;4.07;;
32748;SDS011;19119;52.474;13.710;2022-08-04T07:29:46;5.53;;;3.50;;
32748;SDS011;19119;52.474;13.710;2022-08-04T07:32:12;6.22;;;3.95;;
32748;SDS011;19119;52.474;13.710;2022-08-04T07:34:40;4.28;;;3.85;;
32748;SDS011;19119;52.474;13.710;2022-08-04T07:37:06;5.57;;;3.75;;
32748;SDS011;19119;52.474;13.710;2022-08-04T07:39:32;3.63;;;3.30;;
32748;SDS011;19119;52.474;13.710;2022-08-04T07:42:00;5.00;;;3.67;;
32748;SDS011;19119;52.474;13.710;2022-08-04T07:44:27;3.72;;;3.40;;
32748;SDS011;19119;52.474;13.710;2022-08-04T07:46:54;3.78;;;3.33;;
32748;SDS011;19119;52.474;13.710;2022-08-04T07:49:20;5.55;;;3.70;;
32748;SDS011;19119;52.474;13.710;2022-08-04T07:51:46;6.72;;;3.70;;
32748;SDS011;19119;52.474;13.710;2022-08-04T07:54:13;7.57;;;3.22;;
32748;SDS011;19119;52.474;13.710;2022-08-04T07:56:39;6.05;;;3.15;;
32748;SDS011;19119;52.474;13.710;2022-08-04T07:59:05;8.55;;;3.67;;
32748;SDS011;19119;52.474;13.710;2022-08-04T08:01:35;4.80;;;3.10;;
32748;SDS011;19119;52.474;13.710;2022-08-04T08:04:01;5.63;;;3.30;;
32748;SDS011;19119;52.474;13.710;2022-08-04T08:06:30;4.85;;;3.42;;
32748;SDS011;19119;52.474;13.710;2022-08-04T08:08:55;4.13;;;3.28;;
32748;SDS011;19119;52.474;13.710;2022-08-04T08:11:24;3.75;;;3.20;;
32748;SDS011;19119;52.474;13.710;2022-08-04T08:13:51;6.40;;;3.10;;
32748;SDS011;19119;52.474;13.710;2022-08-04T08:16:16;3.50;;;2.85;;
32748;SDS011;19119;52.474;13.710;2022-08-04T08:18:44;3.30;;;2.85;;
32748;SDS011;19119;52.474;13.710;2022-08-04T08:21:10;7.13;;;3.03;;
32748;SDS011;19119;52.474;13.710;2022-08-04T08:23:36;6.30;;;3.00;;
32748;SDS011;19119;52.474;13.710;2022-08-04T08:26:04;5.65;;;3.20;;
32748;SDS011;19119;52.474;13.710;2022-08-04T08:28:30;4.40;;;3.03;;
32748;SDS011;19119;52.474;13.710;2022-08-04T08:30:55;6.15;;;2.95;;
32748;SDS011;19119;52.474;13.710;2022-08-04T08:33:21;3.72;;;2.65;;
32748;SDS011;19119;52.474;13.710;2022-08-04T08:35:50;4.70;;;2.90;;
32748;SDS011;19119;52.474;13.710;2022-08-04T08:38:36;4.75;;;3.00;;
32748;SDS011;19119;52.474;13.710;2022-08-04T08:41:15;4.30;;;3.28;;
32748;SDS011;19119;52.474;13.710;2022-08-04T08:55:43;10.57;;;2.80;;
32748;SDS011;19119;52.474;13.710;2022-08-04T08:58:24;3.08;;;2.70;;
32748;SDS011;19119;52.474;13.710;2022-08-04T09:00:57;6.53;;;2.40;;
32748;SDS011;19119;52.474;13.710;2022-08-04T09:03:36;3.45;;;2.67;;
32748;SDS011;19119;52.474;13.710;2022-08-04T09:12:08;7.55;;;2.67;;
32748;SDS011;19119;52.474;13.710;2022-08-04T09:14:50;6.28;;;2.60;;
32748;SDS011;19119;52.474;13.710;2022-08-04T09:17:41;3.55;;;3.00;;
32748;SDS011;19119;52.474;13.710;2022-08-04T09:20:21;2.65;;;2.40;;
32748;SDS011;19119;52.474;13.710;2022-08-04T09:22:59;4.82;;;2.70;;
32748;SDS011;19119;52.474;13.710;2022-08-04T09:26:00;2.70;;;2.33;;
32748;SDS011;19119;52.474;13.710;2022-08-04T09:28:44;4.80;;;2.28;;
32748;SDS011;19119;52.474;13.710;2022-08-04T09:31:16;5.68;;;2.30;;
32748;SDS011;19119;52.474;13.710;2022-08-04T09:36:44;6.50;;;2.28;;
32748;SDS011;19119;52.474;13.710;2022-08-04T09:42:12;2.53;;;2.20;;
32748;SDS011;19119;52.474;13.710;2022-08-04T10:01:05;2.85;;;2.17;;
32748;SDS011;19119;52.474;13.710;2022-08-04T10:03:34;9.23;;;2.22;;
32748;SDS011;19119;52.474;13.710;2022-08-04T10:08:53;4.32;;;2.25;;
32748;SDS011;19119;52.474;13.710;2022-08-04T10:14:19;6.30;;;2.28;;
32748;SDS011;19119;52.474;13.710;2022-08-04T10:19:52;3.67;;;2.20;;
32748;SDS011;19119;52.474;13.710;2022-08-04T10:22:56;9.35;;;2.13;;
32748;SDS011;19119;52.474;13.710;2022-08-04T10:28:16;3.15;;;2.10;;
32748;SDS011;19119;52.474;13.710;2022-08-04T10:30:49;2.92;;;2.40;;
32748;SDS011;19119;52.474;13.710;2022-08-04T10:36:12;5.75;;;2.28;;
32748;SDS011;19119;52.474;13.710;2022-08-04T10:38:49;4.90;;;1.95;;
32748;SDS011;19119;52.474;13.710;2022-08-04T10:43:50;2.67;;;1.73;;
32748;SDS011;19119;52.474;13.710;2022-08-04T10:46:44;4.15;;;2.35;;
32748;SDS011;19119;52.474;13.710;2022-08-04T10:49:26;5.43;;;2.20;;
32748;SDS011;19119;52.474;13.710;2022-08-04T10:52:18;4.93;;;1.67;;
32748;SDS011;19119;52.474;13.710;2022-08-04T10:54:59;3.92;;;1.83;;
32748;SDS011;19119;52.474;13.710;2022-08-04T10:57:34;5.72;;;2.05;;
32748;SDS011;19119;52.474;13.710;2022-08-04T11:00:05;5.65;;;1.88;;
32748;SDS011;19119;52.474;13.710;2022-08-04T11:02:54;4.85;;;1.80;;
32748;SDS011;19119;52.474;13.710;2022-08-04T11:08:11;5.18;;;1.70;;
32748;SDS011;19119;52.474;13.710;2022-08-04T11:10:56;5.15;;;2.30;;
32748;SDS011;19119;52.474;13.710;2022-08-04T11:13:28;3.03;;;1.98;;
32748;SDS011;19119;52.474;13.710;2022-08-04T11:16:03;3.63;;;1.67;;
32748;SDS011;19119;52.474;13.710;2022-08-04T11:21:13;2.72;;;1.55;;
32748;SDS011;19119;52.474;13.710;2022-08-04T11:23:47;5.85;;;2.15;;
32748;SDS011;19119;52.474;13.710;2022-08-04T11:26:48;5.40;;;1.63;;
32748;SDS011;19119;52.474;13.710;2022-08-04T11:29:27;6.25;;;2.05;;
32748;SDS011;19119;52.474;13.710;2022-08-04T11:31:58;3.63;;;1.92;;
32748;SDS011;19119;52.474;13.710;2022-08-04T11:34:26;2.33;;;1.33;;
32748;SDS011;19119;52.474;13.710;2022-08-04T11:37:02;2.72;;;1.63;;
32748;SDS011;19119;52.474;13.710;2022-08-04T11:39:51;3.03;;;1.67;;
32748;SDS011;19119;52.474;13.710;2022-08-04T11:42:39;2.70;;;1.60;;
32748;SDS011;19119;52.474;13.710;2022-08-04T11:45:14;4.53;;;2.13;;
32748;SDS011;19119;52.474;13.710;2022-08-04T11:47:46;2.15;;;1.90;;
32748;SDS011;19119;52.474;13.710;2022-08-04T11:50:20;2.60;;;1.80;;
32748;SDS011;19119;52.474;13.710;2022-08-04T11:52:50;4.82;;;2.55;;
32748;SDS011;19119;52.474;13.710;2022-08-04T11:55:18;4.50;;;2.17;;
32748;SDS011;19119;52.474;13.710;2022-08-04T11:57:47;6.65;;;2.47;;
32748;SDS011;19119;52.474;13.710;2022-08-04T12:00:13;4.45;;;1.83;;
32748;SDS011;19119;52.474;13.710;2022-08-04T12:05:13;6.07;;;2.35;;
32748;SDS011;19119;52.474;13.710;2022-08-04T12:07:53;5.20;;;2.10;;
32748;SDS011;19119;52.474;13.710;2022-08-04T12:10:52;5.25;;;1.90;;
32748;SDS011;19119;52.474;13.710;2022-08-04T12:13:43;5.78;;;2.38;;
32748;SDS011;19119;52.474;13.710;2022-08-04T12:21:30;6.60;;;1.90;;
32748;SDS011;19119;52.474;13.710;2022-08-04T12:24:52;4.60;;;2.00;;
32748;SDS011;19119;52.474;13.710;2022-08-04T12:27:17;6.05;;;1.67;;
32748;SDS011;19119;52.474;13.710;2022-08-04T12:29:45;4.15;;;1.73;;
32748;SDS011;19119;52.474;13.710;2022-08-04T12:37:49;3.33;;;1.70;;
32748;SDS011;19119;52.474;13.710;2022-08-04T12:40:24;3.50;;;1.67;;
32748;SDS011;19119;52.474;13.710;2022-08-04T12:45:25;7.97;;;2.30;;
32748;SDS011;19119;52.474;13.710;2022-08-04T12:47:54;6.13;;;2.28;;
32748;SDS011;19119;52.474;13.710;2022-08-04T12:50:22;2.85;;;1.63;;
32748;SDS011;19119;52.474;13.710;2022-08-04T12:52:52;4.55;;;1.98;;
32748;SDS011;19119;52.474;13.710;2022-08-04T12:55:21;4.00;;;1.90;;
32748;SDS011;19119;52.474;13.710;2022-08-04T12:57:49;2.42;;;1.70;;
32748;SDS011;19119;52.474;13.710;2022-08-04T13:00:32;4.55;;;1.60;;
32748;SDS011;19119;52.474;13.710;2022-08-04T13:03:03;4.05;;;2.00;;
32748;SDS011;19119;52.474;13.710;2022-08-04T13:05:32;3.20;;;1.60;;
32748;SDS011;19119;52.474;13.710;2022-08-04T13:08:00;3.38;;;2.13;;
32748;SDS011;19119;52.474;13.710;2022-08-04T13:10:28;9.82;;;1.80;;
32748;SDS011;19119;52.474;13.710;2022-08-04T13:12:56;3.15;;;1.70;;
32748;SDS011;19119;52.474;13.710;2022-08-04T13:15:24;3.90;;;1.60;;
32748;SDS011;19119;52.474;13.710;2022-08-04T13:17:54;6.05;;;2.13;;
32748;SDS011;19119;52.474;13.710;2022-08-04T13:20:27;7.32;;;1.90;;
32748;SDS011;19119;52.474;13.710;2022-08-04T13:22:58;4.45;;;1.95;;
32748;SDS011;19119;52.474;13.710;2022-08-04T13:25:28;7.40;;;2.00;;
32748;SDS011;19119;52.474;13.710;2022-08-04T13:27:56;3.30;;;1.90;;
32748;SDS011;19119;52.474;13.710;2022-08-04T13:30:24;3.78;;;1.60;;
32748;SDS011;19119;52.474;13.710;2022-08-04T13:32:52;4.85;;;1.90;;
32748;SDS011;19119;52.474;13.710;2022-08-04T13:35:22;4.75;;;1.77;;
32748;SDS011;19119;52.474;13.710;2022-08-04T13:37:50;7.32;;;1.80;;
32748;SDS011;19119;52.474;13.710;2022-08-04T13:40:18;2.15;;;1.60;;
32748;SDS011;19119;52.474;13.710;2022-08-04T13:42:47;3.50;;;1.83;;
32748;SDS011;19119;52.474;13.710;2022-08-04T13:45:15;7.85;;;1.80;;
32748;SDS011;19119;52.474;13.710;2022-08-04T13:47:45;2.27;;;1.77;;
32748;SDS011;19119;52.474;13.710;2022-08-04T13:52:39;57.95;;;4.35;;
32748;SDS011;19119;52.474;13.710;2022-08-04T13:55:06;4.82;;;1.80;;
32748;SDS011;19119;52.474;13.710;2022-08-04T13:57:35;2.97;;;1.50;;
32748;SDS011;19119;52.474;13.710;2022-08-04T14:00:07;5.95;;;1.70;;
32748;SDS011;19119;52.474;13.710;2022-08-04T14:02:42;4.13;;;1.80;;
32748;SDS011;19119;52.474;13.710;2022-08-04T14:05:25;5.07;;;1.67;;
32748;SDS011;19119;52.474;13.710;2022-08-04T14:10:32;6.05;;;2.08;;
32748;SDS011;19119;52.474;13.710;2022-08-04T14:12:59;3.20;;;1.70;;
32748;SDS011;19119;52.474;13.710;2022-08-04T14:15:38;2.75;;;2.00;;
32748;SDS011;19119;52.474;13.710;2022-08-04T14:18:15;3.20;;;1.70;;
32748;SDS011;19119;52.474;13.710;2022-08-04T14:21:16;4.93;;;2.00;;
32748;SDS011;19119;52.474;13.710;2022-08-04T14:23:37;3.42;;;1.83;;
32748;SDS011;19119;52.474;13.710;2022-08-04T14:26:19;3.60;;;1.80;;
32748;SDS011;19119;52.474;13.710;2022-08-04T14:28:48;3.88;;;2.03;;
32748;SDS011;19119;52.474;13.710;2022-08-04T14:31:16;7.82;;;1.70;;
32748;SDS011;19119;52.474;13.710;2022-08-04T14:33:43;3.65;;;1.80;;
32748;SDS011;19119;52.474;13.710;2022-08-04T14:36:11;2.60;;;1.73;;
32748;SDS011;19119;52.474;13.710;2022-08-04T14:38:50;3.63;;;1.63;;
32748;SDS011;19119;52.474;13.710;2022-08-04T14:41:21;4.22;;;1.63;;
32748;SDS011;19119;52.474;13.710;2022-08-04T14:43:49;29.05;;;2.72;;
32748;SDS011;19119;52.474;13.710;2022-08-04T14:46:17;2.23;;;1.70;;
32748;SDS011;19119;52.474;13.710;2022-08-04T14:51:28;9.15;;;2.30;;
32748;SDS011;19119;52.474;13.710;2022-08-04T14:53:59;3.42;;;1.70;;
32748;SDS011;19119;52.474;13.710;2022-08-04T14:56:25;3.03;;;1.58;;
32748;SDS011;19119;52.474;13.710;2022-08-04T14:58:58;3.70;;;1.75;;
32748;SDS011;19119;52.474;13.710;2022-08-04T15:01:26;3.97;;;2.00;;
32748;SDS011;19119;52.474;13.710;2022-08-04T15:03:52;16.95;;;2.08;;
32748;SDS011;19119;52.474;13.710;2022-08-04T15:06:20;2.40;;;1.70;;
32748;SDS011;19119;52.474;13.710;2022-08-04T15:08:51;4.03;;;1.50;;
32748;SDS011;19119;52.474;13.710;2022-08-04T15:11:19;3.42;;;1.55;;
32748;SDS011;19119;52.474;13.710;2022-08-04T15:13:46;8.18;;;1.70;;
32748;SDS011;19119;52.474;13.710;2022-08-04T15:16:11;6.18;;;1.60;;
32748;SDS011;19119;52.474;13.710;2022-08-04T15:18:39;7.82;;;2.35;;
32748;SDS011;19119;52.474;13.710;2022-08-04T15:21:06;5.18;;;1.50;;
32748;SDS011;19119;52.474;13.710;2022-08-04T15:23:31;2.67;;;1.60;;
32748;SDS011;19119;52.474;13.710;2022-08-04T15:25:59;2.92;;;1.60;;
32748;SDS011;19119;52.474;13.710;2022-08-04T15:28:27;4.13;;;1.48;;
32748;SDS011;19119;52.474;13.710;2022-08-04T15:30:54;6.28;;;1.80;;
32748;SDS011;19119;52.474;13.710;2022-08-04T15:33:20;4.38;;;1.60;;
32748;SDS011;19119;52.474;13.710;2022-08-04T15:35:49;5.32;;;1.67;;
32748;SDS011;19119;52.474;13.710;2022-08-04T15:38:26;2.72;;;1.52;;
32748;SDS011;19119;52.474;13.710;2022-08-04T15:41:07;5.57;;;1.45;;
32748;SDS011;19119;52.474;13.710;2022-08-04T15:43:57;1.92;;;1.20;;
32748;SDS011;19119;52.474;13.710;2022-08-04T15:47:08;3.45;;;1.70;;
32748;SDS011;19119;52.474;13.710;2022-08-04T15:49:35;2.22;;;1.63;;
32748;SDS011;19119;52.474;13.710;2022-08-04T15:52:04;78.47;;;4.05;;
32748;SDS011;19119;52.474;13.710;2022-08-04T15:54:31;6.32;;;1.42;;
32748;SDS011;19119;52.474;13.710;2022-08-04T15:56:59;2.67;;;1.35;;
32748;SDS011;19119;52.474;13.710;2022-08-04T16:12:55;2.67;;;1.58;;
32748;SDS011;19119;52.474;13.710;2022-08-04T16:18:06;1.70;;;1.50;;
32748;SDS011;19119;52.474;13.710;2022-08-04T16:20:32;5.97;;;1.98;;
32748;SDS011;19119;52.474;13.710;2022-08-04T16:23:02;2.58;;;1.38;;
32748;SDS011;19119;52.474;13.710;2022-08-04T16:25:53;2.90;;;1.60;;
32748;SDS011;19119;52.474;13.710;2022-08-04T16:31:05;1.83;;;1.30;;
32748;SDS011;19119;52.474;13.710;2022-08-04T16:33:33;5.15;;;1.58;;
32748;SDS011;19119;52.474;13.710;2022-08-04T16:35:59;8.93;;;1.75;;
32748;SDS011;19119;52.474;13.710;2022-08-04T16:38:25;4.35;;;2.10;;
32748;SDS011;19119;52.474;13.710;2022-08-04T16:40:55;4.00;;;1.42;;
32748;SDS011;19119;52.474;13.710;2022-08-04T16:43:22;5.88;;;1.52;;
32748;SDS011;19119;52.474;13.710;2022-08-04T16:48:22;3.28;;;1.27;;
32748;SDS011;19119;52.474;13.710;2022-08-04T16:50:56;5.88;;;1.70;;
32748;SDS011;19119;52.474;13.710;2022-08-04T16:53:31;5.53;;;1.40;;
32748;SDS011;19119;52.474;13.710;2022-08-04T16:56:00;3.97;;;1.50;;
32748;SDS011;19119;52.474;13.710;2022-08-04T16:58:32;5.03;;;1.55;;
32748;SDS011;19119;52.474;13.710;2022-08-04T17:01:09;3.42;;;1.40;;
32748;SDS011;19119;52.474;13.710;2022-08-04T17:03:36;2.95;;;1.35;;
32748;SDS011;19119;52.474;13.710;2022-08-04T17:06:12;3.30;;;1.30;;
32748;SDS011;19119;52.474;13.710;2022-08-04T17:08:39;3.40;;;1.17;;
32748;SDS011;19119;52.474;13.710;2022-08-04T17:11:06;2.80;;;1.20;;
32748;SDS011;19119;52.474;13.710;2022-08-04T17:13:35;7.85;;;1.35;;
32748;SDS011;19119;52.474;13.710;2022-08-04T17:16:03;2.83;;;1.40;;
32748;SDS011;19119;52.474;13.710;2022-08-04T17:18:31;2.50;;;1.10;;
32748;SDS011;19119;52.474;13.710;2022-08-04T17:21:00;3.60;;;1.20;;
32748;SDS011;19119;52.474;13.710;2022-08-04T17:28:30;3.80;;;1.40;;
32748;SDS011;19119;52.474;13.710;2022-08-04T17:30:58;4.15;;;1.30;;
32748;SDS011;19119;52.474;13.710;2022-08-04T17:33:24;1.88;;;1.40;;
32748;SDS011;19119;52.474;13.710;2022-08-04T17:35:51;6.03;;;1.70;;
32748;SDS011;19119;52.474;13.710;2022-08-04T17:38:19;4.82;;;1.30;;
32748;SDS011;19119;52.474;13.710;2022-08-04T17:40:52;5.32;;;1.52;;
32748;SDS011;19119;52.474;13.710;2022-08-04T17:46:25;4.43;;;1.30;;
32748;SDS011;19119;52.474;13.710;2022-08-04T17:48:58;2.78;;;1.73;;
32748;SDS011;19119;52.474;13.710;2022-08-04T17:51:33;7.93;;;1.50;;
32748;SDS011;19119;52.474;13.710;2022-08-04T17:54:03;2.50;;;1.48;;
32748;SDS011;19119;52.474;13.710;2022-08-04T17:56:30;18.55;;;2.63;;
32748;SDS011;19119;52.474;13.710;2022-08-04T17:59:08;18.70;;;2.40;;
32748;SDS011;19119;52.474;13.710;2022-08-04T18:07:01;14.38;;;2.60;;
32748;SDS011;19119;52.474;13.710;2022-08-04T18:09:30;10.95;;;2.35;;
32748;SDS011;19119;52.474;13.710;2022-08-04T18:11:59;9.52;;;2.30;;
32748;SDS011;19119;52.474;13.710;2022-08-04T18:17:10;10.27;;;2.40;;
32748;SDS011;19119;52.474;13.710;2022-08-04T18:19:38;6.38;;;2.03;;
32748;SDS011;19119;52.474;13.710;2022-08-04T18:22:15;6.97;;;2.28;;
32748;SDS011;19119;52.474;13.710;2022-08-04T18:24:41;9.38;;;2.45;;
32748;SDS011;19119;52.474;13.710;2022-08-04T18:27:06;11.45;;;3.03;;
32748;SDS011;19119;52.474;13.710;2022-08-04T18:29:33;8.73;;;2.53;;
32748;SDS011;19119;52.474;13.710;2022-08-04T18:31:58;5.70;;;2.47;;
32748;SDS011;19119;52.474;13.710;2022-08-04T18:34:24;4.18;;;1.70;;
32748;SDS011;19119;52.474;13.710;2022-08-04T18:36:50;6.80;;;2.35;;
32748;SDS011;19119;52.474;13.710;2022-08-04T18:39:15;5.05;;;1.90;;
32748;SDS011;19119;52.474;13.710;2022-08-04T18:41:41;5.85;;;2.78;;
32748;SDS011;19119;52.474;13.710;2022-08-04T18:44:08;81.40;;;6.45;;
32748;SDS011;19119;52.474;13.710;2022-08-04T18:46:33;17.25;;;2.05;;
32748;SDS011;19119;52.474;13.710;2022-08-04T18:48:59;22.20;;;3.45;;
32748;SDS011;19119;52.474;13.710;2022-08-04T18:51:25;15.38;;;2.35;;
32748;SDS011;19119;52.474;13.710;2022-08-04T18:53:51;7.50;;;1.90;;
32748;SDS011;19119;52.474;13.710;2022-08-04T18:56:17;7.60;;;2.38;;
32748;SDS011;19119;52.474;13.710;2022-08-04T18:58:42;5.88;;;2.20;;
32748;SDS011;19119;52.474;13.710;2022-08-04T19:01:08;8.70;;;2.45;;
32748;SDS011;19119;52.474;13.710;2022-08-04T19:03:35;9.73;;;2.85;;
32748;SDS011;19119;52.474;13.710;2022-08-04T19:06:01;5.95;;;2.20;;
32748;SDS011;19119;52.474;13.710;2022-08-04T19:08:30;5.18;;;2.58;;
32748;SDS011;19119;52.474;13.710;2022-08-04T19:10:57;4.25;;;3.05;;